Time;durP1;ratioP1;P1;durP2;ratioP2;P2;SDS_P1;SDS_P2;PMS_P1;PMS_P2;Temp;Humidity;BMP_temperature;BMP_pressure;BME280_temperature;BME280_humidity;BME280_pressure;Samples;Min_cycle;Max_cycle;Signal;HPM_P1;HPM_P2
2021/03/09 00:02:16;;;;;;;105.00;48.67;;;4.40;99.90;;;;;;5075637;28;20205;-78
2021/03/09 00:04:43;;;;;;;102.37;48.60;;;4.40;99.90;;;;;;5087914;28;20240;-78
2021/03/09 00:07:11;;;;;;;106.90;48.37;;;4.50;99.90;;;;;;5055302;28;20428;-79
2021/03/09 00:09:36;;;;;;;97.03;44.80;;;4.50;99.90;;;;;;5066433;28;20402;-79
2021/03/09 00:12:03;;;;;;;121.47;47.07;;;4.40;99.90;;;;;;5065853;28;20926;-79
2021/03/09 00:14:29;;;;;;;110.97;46.90;;;4.40;99.90;;;;;;5085629;28;20301;-79
2021/03/09 00:16:55;;;;;;;107.50;45.63;;;4.40;99.90;;;;;;5068287;28;21998;-80
2021/03/09 00:19:21;;;;;;;106.83;45.00;;;4.30;99.90;;;;;;5054181;28;21456;-79
2021/03/09 00:21:46;;;;;;;97.23;45.17;;;4.40;99.90;;;;;;5075518;28;20732;-80
2021/03/09 00:24:12;;;;;;;105.60;48.50;;;4.40;99.90;;;;;;5052816;28;20254;-79
2021/03/09 00:26:38;;;;;;;108.93;48.03;;;4.40;99.90;;;;;;5070906;28;20713;-78
2021/03/09 00:29:27;;;;;;;91.77;44.83;;;4.40;99.90;;;;;;5049228;28;20398;-78
2021/03/09 00:31:53;;;;;;;113.97;48.70;;;4.50;99.90;;;;;;5011361;28;20230;-79
2021/03/09 00:34:21;;;;;;;106.87;45.40;;;4.50;99.90;;;;;;5015069;28;20403;-78
2021/03/09 00:36:47;;;;;;;108.03;45.07;;;4.50;99.90;;;;;;5031983;28;20270;-79
2021/03/09 00:39:13;;;;;;;103.47;49.63;;;4.40;99.90;;;;;;5016534;28;20406;-79
2021/03/09 00:41:39;;;;;;;100.80;43.57;;;4.40;99.90;;;;;;5014989;28;20206;-79
2021/03/09 00:44:05;;;;;;;101.73;44.60;;;4.30;99.90;;;;;;5030782;28;20422;-79
2021/03/09 00:46:31;;;;;;;120.87;49.70;;;4.20;99.90;;;;;;5017603;28;20439;-79
2021/03/09 00:48:59;;;;;;;121.00;48.10;;;4.20;99.90;;;;;;5016749;28;20402;-79
2021/03/09 00:51:26;;;;;;;114.33;49.17;;;4.20;99.90;;;;;;5017052;28;20248;-79
2021/03/09 00:53:53;;;;;;;113.77;47.20;;;4.10;99.90;;;;;;5012317;28;20552;-78
2021/03/09 00:56:18;;;;;;;104.83;46.20;;;4.10;99.90;;;;;;5010233;28;20426;-79
2021/03/09 00:58:44;;;;;;;115.10;49.90;;;4.20;99.90;;;;;;5014903;28;20427;-79
2021/03/09 01:01:10;;;;;;;96.87;45.80;;;4.20;99.90;;;;;;5022242;28;20546;-79
2021/03/09 01:03:36;;;;;;;92.63;45.60;;;4.20;99.90;;;;;;5020195;28;20386;-79
2021/03/09 01:06:03;;;;;;;99.53;45.90;;;4.30;99.90;;;;;;5020407;28;20304;-79
2021/03/09 01:08:29;;;;;;;114.60;51.00;;;4.30;99.90;;;;;;5064974;28;20220;-79
2021/03/09 01:10:55;;;;;;;110.10;45.20;;;4.30;99.90;;;;;;5076742;28;20409;-79
2021/03/09 01:13:44;;;;;;;102.43;46.57;;;4.20;99.90;;;;;;5077719;28;20450;-79
2021/03/09 01:16:11;;;;;;;105.47;45.77;;;4.20;99.90;;;;;;4962724;28;20586;-80
2021/03/09 01:18:37;;;;;;;93.67;46.13;;;4.30;99.90;;;;;;4985757;28;20396;-79
2021/03/09 01:21:04;;;;;;;101.60;46.77;;;4.20;99.90;;;;;;4989979;28;20825;-79
2021/03/09 01:23:31;;;;;;;100.87;46.70;;;4.20;99.90;;;;;;4982857;28;20877;-79
2021/03/09 01:25:58;;;;;;;101.40;46.77;;;4.20;99.90;;;;;;5005342;28;20384;-79
2021/03/09 01:28:51;;;;;;;98.30;46.87;;;4.20;99.90;;;;;;4979251;28;20415;-79
2021/03/09 01:31:17;;;;;;;105.87;46.50;;;4.20;99.90;;;;;;4924841;28;20494;-79
2021/03/09 01:34:09;;;;;;;105.80;44.60;;;4.20;99.90;;;;;;4907826;28;23349;-79
2021/03/09 01:36:35;;;;;;;87.30;45.13;;;4.20;99.90;;;;;;4862804;29;20232;-79
2021/03/09 01:39:01;;;;;;;79.10;41.47;;;4.30;99.90;;;;;;4859673;29;20550;-79
2021/03/09 01:41:27;;;;;;;93.67;44.13;;;4.30;99.90;;;;;;4862881;29;20690;-79
2021/03/09 01:43:54;;;;;;;101.47;46.33;;;4.30;99.90;;;;;;4861619;29;20490;-79
2021/03/09 01:46:23;;;;;;;89.17;42.37;;;4.20;99.90;;;;;;4861721;29;20520;-80
2021/03/09 01:49:19;;;;;;;80.30;40.30;;;4.20;99.90;;;;;;4861284;29;20394;-80
2021/03/09 01:51:46;;;;;;;85.00;43.90;;;4.30;99.90;;;;;;4845456;29;20450;-79
2021/03/09 01:54:13;;;;;;;78.77;42.40;;;4.20;99.90;;;;;;4910683;29;20420;-79
2021/03/09 01:56:42;;;;;;;83.57;44.10;;;4.20;99.90;;;;;;4903165;29;20501;-80
2021/03/09 01:59:09;;;;;;;80.20;40.63;;;4.20;99.90;;;;;;4902331;29;20459;-80
2021/03/09 02:01:37;;;;;;;78.40;41.27;;;4.20;99.90;;;;;;4902937;29;20426;-80
2021/03/09 02:04:04;;;;;;;90.73;42.33;;;4.20;99.90;;;;;;4919653;29;20393;-80
2021/03/09 02:06:31;;;;;;;90.23;43.00;;;4.20;99.90;;;;;;4914869;29;21191;-80
2021/03/09 02:08:58;;;;;;;80.20;38.50;;;4.20;99.90;;;;;;4928108;29;20447;-80
2021/03/09 02:11:34;;;;;;;71.27;39.93;;;4.10;99.90;;;;;;4955290;28;20773;-80
2021/03/09 02:14:08;;;;;;;89.60;40.57;;;4.10;99.90;;;;;;5000500;28;20384;-80
2021/03/09 02:16:42;;;;;;;70.90;35.53;;;4.10;99.90;;;;;;4994255;28;20402;-80
2021/03/09 02:19:54;;;;;;;69.57;38.00;;;4.10;99.90;;;;;;5010307;28;22630;-80
2021/03/09 02:22:37;;;;;;;70.90;38.80;;;4.10;99.90;;;;;;5012658;28;20865;-80
2021/03/09 02:25:32;;;;;;;71.43;37.23;;;4.10;99.90;;;;;;4992995;28;20437;-80
2021/03/09 02:28:20;;;;;;;77.00;40.07;;;4.20;99.90;;;;;;5030675;28;20998;-80
2021/03/09 02:30:47;;;;;;;76.63;41.70;;;4.10;99.90;;;;;;5094185;28;20458;-80
2021/03/09 02:33:24;;;;;;;69.30;38.87;;;4.10;99.90;;;;;;5095538;28;20454;-80
2021/03/09 02:35:59;;;;;;;74.07;39.20;;;4.10;99.90;;;;;;5088810;28;20348;-80
2021/03/09 02:38:28;;;;;;;73.40;38.30;;;4.00;99.90;;;;;;5087652;28;20430;-81
2021/03/09 02:40:57;;;;;;;83.87;41.20;;;4.10;99.90;;;;;;5055647;28;20381;-80
2021/03/09 02:43:52;;;;;;;81.47;39.90;;;4.10;99.90;;;;;;5051902;28;20415;-80
2021/03/09 02:46:20;;;;;;;78.13;38.20;;;4.00;99.90;;;;;;5028349;28;20440;-80
2021/03/09 02:48:47;;;;;;;82.67;42.23;;;4.10;99.90;;;;;;5026991;28;20539;-80
2021/03/09 02:51:13;;;;;;;88.13;39.57;;;4.00;99.90;;;;;;5030761;28;20952;-80
2021/03/09 02:53:51;;;;;;;71.90;38.43;;;4.10;99.90;;;;;;5011280;28;20412;-80
2021/03/09 02:56:20;;;;;;;83.07;39.10;;;4.00;99.90;;;;;;5037334;28;21284;-80
2021/03/09 02:58:53;;;;;;;73.33;40.50;;;4.00;99.90;;;;;;5044775;28;20382;-80
2021/03/09 03:01:25;;;;;;;81.43;40.43;;;4.10;99.90;;;;;;5018289;28;20362;-80
2021/03/09 03:03:53;;;;;;;77.60;38.20;;;4.00;99.90;;;;;;5034111;28;20908;-80
2021/03/09 03:06:20;;;;;;;75.07;39.10;;;3.90;99.90;;;;;;5033571;28;20842;-80
2021/03/09 03:08:48;;;;;;;73.73;39.50;;;4.00;99.90;;;;;;5035772;28;20391;-80
2021/03/09 03:11:44;;;;;;;74.97;39.87;;;4.00;99.90;;;;;;5015485;28;20427;-80
2021/03/09 03:14:14;;;;;;;83.77;42.67;;;4.00;99.90;;;;;;4998662;28;20426;-81
2021/03/09 03:16:42;;;;;;;68.47;37.20;;;3.90;99.90;;;;;;4982596;28;20931;-83
2021/03/09 03:19:09;;;;;;;79.53;42.87;;;3.90;99.90;;;;;;4995611;28;21105;-83
2021/03/09 03:21:43;;;;;;;76.40;37.43;;;3.90;99.90;;;;;;4988422;28;20416;-83
2021/03/09 03:24:35;;;;;;;71.60;39.27;;;3.90;99.90;;;;;;5026170;28;20390;-83
2021/03/09 03:27:02;;;;;;;70.17;36.93;;;3.90;99.90;;;;;;4951412;28;20390;-84
2021/03/09 03:29:30;;;;;;;64.90;35.80;;;3.90;99.90;;;;;;4944765;28;20439;-83
2021/03/09 03:31:57;;;;;;;64.10;34.93;;;3.90;99.90;;;;;;4925984;28;20389;-84
2021/03/09 03:34:23;;;;;;;75.70;38.90;;;3.90;99.90;;;;;;4947262;28;20390;-83
2021/03/09 03:37:16;;;;;;;70.20;38.87;;;3.90;99.90;;;;;;4941643;28;20440;-83
2021/03/09 03:40:16;;;;;;;69.80;37.53;;;3.80;99.90;;;;;;4900170;29;20896;-83
2021/03/09 03:43:06;;;;;;;70.77;36.80;;;3.80;99.90;;;;;;4920544;29;20364;-82
2021/03/09 03:45:59;;;;;;;63.13;36.73;;;3.80;99.90;;;;;;4902312;29;21347;-83
2021/03/09 03:48:59;;;;;;;74.47;36.37;;;3.80;99.90;;;;;;4843186;29;20497;-83
2021/03/09 03:51:35;;;;;;;82.17;38.50;;;3.80;99.90;;;;;;4743830;30;20591;-83
2021/03/09 03:54:27;;;;;;;67.57;37.57;;;3.80;99.90;;;;;;4753370;29;20419;-83
2021/03/09 03:57:05;;;;;;;69.57;37.60;;;3.80;99.90;;;;;;4755920;30;20400;-83
2021/03/09 03:59:38;;;;;;;70.87;37.73;;;3.80;99.90;;;;;;4755498;30;20478;-82
2021/03/09 04:02:07;;;;;;;69.97;39.20;;;3.80;99.90;;;;;;4771649;29;20571;-83
2021/03/09 04:05:03;;;;;;;78.60;40.83;;;3.80;99.90;;;;;;4774260;29;20398;-83
2021/03/09 04:07:32;;;;;;;76.37;42.17;;;3.80;99.90;;;;;;4774855;29;20407;-84
2021/03/09 04:10:27;;;;;;;82.37;42.23;;;3.80;99.90;;;;;;4771695;29;20390;-83
2021/03/09 04:13:23;;;;;;;76.27;40.80;;;3.80;99.90;;;;;;4762892;29;20563;-83
2021/03/09 04:16:17;;;;;;;72.73;39.80;;;3.80;99.90;;;;;;4763693;29;20486;-83
2021/03/09 04:18:46;;;;;;;77.87;42.90;;;3.80;99.90;;;;;;4754404;30;20414;-83
2021/03/09 04:21:13;;;;;;;90.43;44.70;;;3.70;99.90;;;;;;4753757;30;20435;-83
2021/03/09 04:24:11;;;;;;;78.17;40.57;;;3.80;99.90;;;;;;4789479;29;20445;-83
2021/03/09 04:26:40;;;;;;;75.23;40.67;;;3.70;99.90;;;;;;4783726;29;20503;-84
2021/03/09 04:29:08;;;;;;;70.33;38.63;;;3.70;99.90;;;;;;4813986;29;20406;-82
2021/03/09 04:31:40;;;;;;;72.20;39.80;;;3.70;99.90;;;;;;4814367;29;20422;-82
2021/03/09 04:34:33;;;;;;;87.50;43.27;;;3.70;99.90;;;;;;4814835;29;20406;-83
2021/03/09 04:37:25;;;;;;;88.60;47.17;;;3.70;99.90;;;;;;4796005;29;20475;-82
2021/03/09 04:39:54;;;;;;;97.27;47.30;;;3.60;99.90;;;;;;4781736;29;20398;-83
2021/03/09 04:42:20;;;;;;;91.17;48.23;;;3.60;99.90;;;;;;4794351;29;20439;-83
2021/03/09 04:45:13;;;;;;;92.53;50.40;;;3.60;99.90;;;;;;4806845;29;20438;-83
2021/03/09 04:48:06;;;;;;;77.83;44.70;;;3.60;99.90;;;;;;4831803;29;20388;-83
2021/03/09 04:51:04;;;;;;;99.23;52.10;;;3.60;99.90;;;;;;4847232;29;20432;-83
2021/03/09 04:53:58;;;;;;;88.67;47.20;;;3.60;99.90;;;;;;4815654;29;20479;-82
2021/03/09 04:56:25;;;;;;;96.63;50.33;;;3.60;99.90;;;;;;4763220;29;20400;-82
2021/03/09 04:59:18;;;;;;;97.73;53.77;;;3.60;99.90;;;;;;4778512;29;20915;-82
2021/03/09 05:01:46;;;;;;;93.90;52.20;;;3.60;99.90;;;;;;4757190;30;20440;-82
2021/03/09 05:04:38;;;;;;;93.60;53.00;;;3.60;99.90;;;;;;4743722;30;20365;-83
2021/03/09 05:10:32;;;;;;;84.73;50.70;;;3.50;99.90;;;;;;5108827;27;21263;-76
2021/03/09 05:12:58;;;;;;;90.13;52.30;;;3.50;99.90;;;;;;5091486;27;20428;-76
2021/03/09 05:15:23;;;;;;;98.13;50.00;;;3.50;99.90;;;;;;5096212;27;20220;-76
2021/03/09 05:17:49;;;;;;;82.20;47.17;;;3.50;99.90;;;;;;5074923;27;20732;-76
2021/03/09 05:20:15;;;;;;;86.07;48.70;;;3.50;99.90;;;;;;5095621;27;21579;-76
2021/03/09 05:22:41;;;;;;;90.20;52.30;;;3.50;99.90;;;;;;5094277;27;20278;-76
2021/03/09 05:25:11;;;;;;;89.97;46.07;;;3.60;99.90;;;;;;5094051;27;20409;-76
2021/03/09 05:27:37;;;;;;;90.40;49.37;;;3.60;99.90;;;;;;5091498;27;20851;-76
2021/03/09 05:30:04;;;;;;;88.50;44.83;;;3.50;99.90;;;;;;5094300;27;20445;-75
2021/03/09 05:32:30;;;;;;;95.57;49.40;;;3.50;99.90;;;;;;5094696;27;20425;-76
2021/03/09 05:34:55;;;;;;;102.57;56.10;;;3.60;99.90;;;;;;5086298;27;20491;-75
2021/03/09 05:37:21;;;;;;;85.83;47.07;;;3.50;99.90;;;;;;5092333;27;20594;-75
2021/03/09 05:39:47;;;;;;;98.70;51.10;;;3.50;99.90;;;;;;5097783;27;20294;-76
2021/03/09 05:42:15;;;;;;;91.43;55.50;;;3.50;99.90;;;;;;5095260;27;20304;-76
2021/03/09 05:44:41;;;;;;;96.90;52.87;;;3.50;99.90;;;;;;5093968;27;20222;-76
2021/03/09 05:47:07;;;;;;;98.17;47.20;;;3.50;99.90;;;;;;5095876;27;21148;-75
2021/03/09 05:49:32;;;;;;;98.00;50.37;;;3.50;99.90;;;;;;5098425;27;20531;-75
2021/03/09 05:51:59;;;;;;;85.83;48.63;;;3.50;99.90;;;;;;5093988;27;20592;-77
2021/03/09 05:54:24;;;;;;;88.23;49.50;;;3.50;99.90;;;;;;5097570;27;20212;-76
2021/03/09 05:56:50;;;;;;;105.40;51.70;;;3.50;99.90;;;;;;5094441;27;20476;-76
2021/03/09 05:59:16;;;;;;;84.23;49.70;;;3.50;99.90;;;;;;5092892;27;20208;-76
2021/03/09 06:01:42;;;;;;;105.43;53.33;;;3.50;99.90;;;;;;5092539;27;20211;-76
2021/03/09 06:04:08;;;;;;;94.27;48.00;;;3.50;99.90;;;;;;5080378;27;20404;-77
2021/03/09 06:06:34;;;;;;;92.17;51.60;;;3.60;99.90;;;;;;5095404;27;20485;-75
2021/03/09 06:09:01;;;;;;;92.13;50.57;;;3.50;99.90;;;;;;5093283;27;20550;-75
2021/03/09 06:11:26;;;;;;;100.20;53.13;;;3.50;99.90;;;;;;5096381;27;20493;-75
2021/03/09 06:13:54;;;;;;;96.80;53.30;;;3.50;99.90;;;;;;5080379;27;20897;-76
2021/03/09 06:16:20;;;;;;;95.60;51.50;;;3.50;99.90;;;;;;5093795;27;20223;-76
2021/03/09 06:18:57;;;;;;;103.80;51.47;;;3.50;99.90;;;;;;5090697;27;21068;-76
2021/03/09 06:21:24;;;;;;;99.90;54.90;;;3.50;99.90;;;;;;5063704;28;20437;-76
2021/03/09 06:23:50;;;;;;;100.37;53.23;;;3.60;99.90;;;;;;5051204;28;20433;-76
2021/03/09 06:26:34;;;;;;;90.20;49.00;;;3.50;99.90;;;;;;5066535;28;20411;-76
2021/03/09 06:29:10;;;;;;;100.83;52.10;;;3.60;99.90;;;;;;5078111;28;21015;-76
2021/03/09 06:31:35;;;;;;;98.50;47.80;;;3.50;99.90;;;;;;5082458;28;20389;-76
2021/03/09 06:34:23;;;;;;;90.93;48.07;;;3.60;99.90;;;;;;5061232;28;21249;-76
2021/03/09 06:37:23;;;;;;;85.93;47.53;;;3.50;99.90;;;;;;5069250;28;20662;-76
2021/03/09 06:40:03;;;;;;;78.97;42.17;;;3.60;99.90;;;;;;5080906;28;20418;-75
2021/03/09 06:42:39;;;;;;;94.30;48.50;;;3.50;99.90;;;;;;5079248;28;20551;-75
2021/03/09 06:45:16;;;;;;;85.00;44.00;;;3.50;99.90;;;;;;5080485;28;20456;-75
2021/03/09 06:47:46;;;;;;;100.83;50.37;;;3.60;99.90;;;;;;5080589;28;20436;-76
2021/03/09 06:50:20;;;;;;;88.53;43.90;;;3.60;99.90;;;;;;5057771;28;20401;-76
2021/03/09 06:53:00;;;;;;;86.93;45.80;;;3.60;99.90;;;;;;5080863;28;20404;-75
2021/03/09 06:55:31;;;;;;;82.13;42.87;;;3.60;99.90;;;;;;5076630;28;20408;-76
2021/03/09 06:58:12;;;;;;;81.53;40.70;;;3.60;99.90;;;;;;5060933;28;20389;-77
2021/03/09 07:00:42;;;;;;;114.13;46.83;;;3.60;99.90;;;;;;5077576;28;20419;-76
2021/03/09 07:03:33;;;;;;;84.47;42.20;;;3.60;99.90;;;;;;5079031;28;20393;-76
2021/03/09 07:05:59;;;;;;;78.87;43.30;;;3.80;99.90;;;;;;5076600;28;20537;-76
2021/03/09 07:08:25;;;;;;;78.83;42.27;;;3.70;99.90;;;;;;5077784;28;20427;-76
2021/03/09 07:10:51;;;;;;;68.33;38.50;;;3.70;99.90;;;;;;5072315;28;20601;-76
2021/03/09 07:13:23;;;;;;;80.13;40.50;;;3.70;99.90;;;;;;5076856;28;20423;-77
2021/03/09 07:15:49;;;;;;;70.23;37.77;;;3.60;99.90;;;;;;5079228;28;20455;-77
2021/03/09 07:18:27;;;;;;;74.50;39.37;;;3.60;99.90;;;;;;5078673;28;20913;-76
2021/03/09 07:20:54;;;;;;;67.77;39.80;;;3.50;99.90;;;;;;5080067;28;20487;-76
2021/03/09 07:23:24;;;;;;;68.37;38.30;;;3.40;99.90;;;;;;5061619;28;20427;-76
2021/03/09 07:25:55;;;;;;;75.07;37.67;;;3.50;99.90;;;;;;5076429;28;20385;-76
2021/03/09 07:28:23;;;;;;;53.40;28.80;;;3.40;99.90;;;;;;5079401;28;21386;-76
2021/03/09 07:30:51;;;;;;;65.40;33.63;;;3.40;99.90;;;;;;5080617;28;20437;-77
2021/03/09 07:33:18;;;;;;;62.87;36.37;;;3.40;99.90;;;;;;5092997;27;20936;-77
2021/03/09 07:35:46;;;;;;;53.57;31.60;;;3.40;99.90;;;;;;5077131;28;20402;-76
2021/03/09 07:38:17;;;;;;;61.80;34.37;;;3.40;99.90;;;;;;5075193;28;20815;-76
2021/03/09 07:40:43;;;;;;;60.03;34.63;;;3.50;99.90;;;;;;5079010;28;20429;-76
2021/03/09 07:43:09;;;;;;;56.63;29.90;;;3.50;99.90;;;;;;5059191;28;20437;-76
2021/03/09 07:45:37;;;;;;;67.40;37.93;;;3.70;99.90;;;;;;5055907;28;20447;-76
2021/03/09 07:48:06;;;;;;;64.03;34.77;;;3.60;99.90;;;;;;5073124;28;20315;-76
2021/03/09 07:50:35;;;;;;;75.13;38.57;;;3.60;99.90;;;;;;5076164;28;20442;-76
2021/03/09 07:53:23;;;;;;;57.47;36.60;;;3.60;99.90;;;;;;5073781;28;20377;-76
2021/03/09 07:56:12;;;;;;;58.97;33.87;;;3.60;99.90;;;;;;5078320;28;20907;-76
2021/03/09 07:58:38;;;;;;;71.53;36.47;;;3.60;99.90;;;;;;5076563;28;20421;-76
2021/03/09 08:01:11;;;;;;;67.33;39.50;;;3.50;99.90;;;;;;5080221;28;20423;-77
2021/03/09 08:03:42;;;;;;;66.73;37.20;;;3.50;99.90;;;;;;5061492;28;21137;-76
2021/03/09 08:06:12;;;;;;;62.07;34.97;;;3.60;99.90;;;;;;5079913;28;21112;-77
2021/03/09 08:08:49;;;;;;;66.43;36.60;;;3.60;99.90;;;;;;5074298;28;20413;-76
2021/03/09 08:11:24;;;;;;;62.90;37.63;;;3.60;99.90;;;;;;5078716;28;20879;-76
2021/03/09 08:14:12;;;;;;;77.13;41.17;;;3.60;99.90;;;;;;5077582;28;20372;-76
2021/03/09 08:16:42;;;;;;;74.97;38.87;;;3.60;99.90;;;;;;5079496;28;20419;-77
2021/03/09 08:19:08;;;;;;;65.73;38.60;;;3.70;99.90;;;;;;5062654;28;20613;-76
2021/03/09 08:22:09;;;;;;;61.07;32.60;;;3.70;99.90;;;;;;5062359;28;20401;-76
2021/03/09 08:24:45;;;;;;;66.67;36.67;;;3.80;99.90;;;;;;5054490;28;20431;-76
2021/03/09 08:27:31;;;;;;;56.10;33.47;;;3.70;99.90;;;;;;5056198;28;20411;-76
2021/03/09 08:30:17;;;;;;;66.00;36.90;;;3.70;99.90;;;;;;5055368;28;20435;-76
2021/03/09 08:32:43;;;;;;;71.40;39.00;;;3.70;99.90;;;;;;5040109;28;20446;-75
2021/03/09 08:35:11;;;;;;;72.53;42.57;;;3.70;99.90;;;;;;5026655;28;20587;-75
2021/03/09 08:37:38;;;;;;;62.70;35.80;;;3.70;99.90;;;;;;5055254;28;20224;-76
2021/03/09 08:40:05;;;;;;;60.97;34.33;;;3.70;99.90;;;;;;5057220;28;20402;-76
2021/03/09 08:43:00;;;;;;;65.67;37.10;;;3.80;99.90;;;;;;5059173;28;20430;-76
2021/03/09 08:45:36;;;;;;;66.10;37.17;;;3.80;99.90;;;;;;5042878;28;20381;-76
2021/03/09 08:48:02;;;;;;;66.90;35.10;;;3.70;99.90;;;;;;5059410;28;20451;-76
2021/03/09 08:50:47;;;;;;;59.87;33.10;;;3.80;99.90;;;;;;5043377;28;20563;-76
2021/03/09 08:53:29;;;;;;;60.63;36.47;;;3.80;99.90;;;;;;5056958;28;20446;-76
2021/03/09 08:55:56;;;;;;;63.53;34.27;;;3.80;99.90;;;;;;5029933;28;20803;-76
2021/03/09 08:58:22;;;;;;;51.27;28.83;;;3.80;99.90;;;;;;5064811;28;21092;-75
2021/03/09 09:00:48;;;;;;;45.37;29.23;;;3.70;99.90;;;;;;5065406;28;20951;-75
2021/03/09 09:03:28;;;;;;;55.33;30.20;;;3.70;99.90;;;;;;5081694;28;20895;-75
2021/03/09 09:05:54;;;;;;;51.30;30.23;;;3.90;99.90;;;;;;5078823;28;20208;-76
2021/03/09 09:08:20;;;;;;;50.73;30.00;;;3.80;99.90;;;;;;5074944;28;20997;-75
2021/03/09 09:10:46;;;;;;;57.20;33.00;;;3.90;99.90;;;;;;5059520;28;20312;-75
2021/03/09 09:13:11;;;;;;;55.10;31.13;;;3.70;99.90;;;;;;5077477;28;20201;-75
2021/03/09 09:15:37;;;;;;;57.10;33.47;;;3.80;99.90;;;;;;5044735;28;20750;-75
2021/03/09 09:18:05;;;;;;;56.70;31.87;;;3.80;99.90;;;;;;5059270;28;20201;-76
2021/03/09 09:20:48;;;;;;;53.23;31.17;;;3.80;99.90;;;;;;5074378;28;20223;-75
2021/03/09 09:23:18;;;;;;;58.30;34.10;;;3.90;99.90;;;;;;5079623;28;20506;-75
2021/03/09 09:25:55;;;;;;;53.13;29.40;;;3.80;99.90;;;;;;5077911;28;20464;-76
2021/03/09 09:28:35;;;;;;;54.80;27.63;;;3.80;99.90;;;;;;5073378;28;20878;-76
2021/03/09 09:31:03;;;;;;;49.90;28.40;;;3.80;99.90;;;;;;5074175;28;20379;-77
2021/03/09 09:33:30;;;;;;;50.40;30.93;;;3.80;99.90;;;;;;5081108;28;20411;-76
2021/03/09 09:35:56;;;;;;;41.33;29.17;;;3.80;99.90;;;;;;5079756;28;20497;-76
2021/03/09 09:38:22;;;;;;;45.23;26.13;;;3.80;99.90;;;;;;5073764;28;20472;-75
2021/03/09 09:40:53;;;;;;;46.80;29.57;;;3.80;99.90;;;;;;5078393;28;20428;-77
2021/03/09 09:43:24;;;;;;;44.80;28.30;;;3.80;99.90;;;;;;5074721;28;20402;-76
2021/03/09 09:46:03;;;;;;;44.77;29.80;;;3.90;99.90;;;;;;5077702;28;20409;-75
2021/03/09 09:48:40;;;;;;;39.43;28.17;;;4.00;99.90;;;;;;5077366;28;20402;-76
2021/03/09 09:51:12;;;;;;;44.87;26.93;;;3.90;99.90;;;;;;5078515;28;20441;-76
2021/03/09 09:53:40;;;;;;;53.03;28.87;;;3.90;99.90;;;;;;5056737;28;20440;-77
2021/03/09 09:56:12;;;;;;;47.10;27.30;;;4.00;99.90;;;;;;5095841;27;20463;-76
2021/03/09 09:58:44;;;;;;;51.77;27.43;;;3.90;99.90;;;;;;5078942;28;20540;-76
2021/03/09 10:01:20;;;;;;;52.63;27.70;;;4.20;99.90;;;;;;5082635;28;20401;-75
2021/03/09 10:04:00;;;;;;;41.37;27.57;;;4.10;99.90;;;;;;5083089;28;20478;-76
2021/03/09 10:06:42;;;;;;;41.30;24.90;;;4.10;99.90;;;;;;5081914;28;20918;-75
2021/03/09 10:09:22;;;;;;;39.10;27.17;;;4.10;99.90;;;;;;5085483;28;20433;-76
2021/03/09 10:11:47;;;;;;;36.67;25.00;;;4.10;99.90;;;;;;5063056;28;20381;-76
2021/03/09 10:14:14;;;;;;;41.20;25.33;;;4.10;99.90;;;;;;5079386;28;20442;-76
2021/03/09 10:16:41;;;;;;;41.20;24.33;;;4.10;99.90;;;;;;5080653;28;20213;-76
2021/03/09 10:19:15;;;;;;;39.80;24.73;;;4.40;99.90;;;;;;5077872;28;20781;-76
2021/03/09 10:21:40;;;;;;;37.60;24.43;;;4.30;99.90;;;;;;5081753;27;20408;-75
2021/03/09 10:24:07;;;;;;;39.60;23.80;;;4.00;99.90;;;;;;5081092;28;20444;-75
2021/03/09 10:26:41;;;;;;;30.13;22.67;;;4.00;99.90;;;;;;5063123;28;20769;-75
2021/03/09 10:29:16;;;;;;;38.87;22.87;;;4.10;99.90;;;;;;5081783;28;20397;-75
2021/03/09 10:31:53;;;;;;;38.40;23.20;;;4.10;99.90;;;;;;5081247;28;20398;-76
2021/03/09 10:34:37;;;;;;;39.23;23.30;;;4.20;99.90;;;;;;5080825;28;20419;-76
2021/03/09 10:37:03;;;;;;;42.07;23.10;;;4.20;99.90;;;;;;5065147;28;20464;-76
2021/03/09 10:39:31;;;;;;;33.37;23.60;;;4.20;99.90;;;;;;5079362;28;20403;-76
2021/03/09 10:42:18;;;;;;;40.10;25.30;;;4.30;99.90;;;;;;5079999;28;20401;-76
2021/03/09 10:44:43;;;;;;;38.80;23.13;;;4.40;99.90;;;;;;5080143;28;20399;-76
2021/03/09 10:47:12;;;;;;;46.50;28.40;;;4.40;99.90;;;;;;5075920;28;20385;-76
2021/03/09 10:49:37;;;;;;;38.83;24.03;;;4.40;99.90;;;;;;5076125;28;20239;-76
2021/03/09 10:52:08;;;;;;;48.50;25.83;;;4.60;99.90;;;;;;5078735;28;20397;-76
2021/03/09 10:54:37;;;;;;;41.87;25.97;;;4.70;99.90;;;;;;5094105;27;20201;-76
2021/03/09 10:57:07;;;;;;;41.90;24.43;;;4.70;99.90;;;;;;5081398;28;20446;-76
2021/03/09 10:59:33;;;;;;;47.70;28.23;;;4.80;99.90;;;;;;5064024;28;20426;-76
2021/03/09 11:02:00;;;;;;;35.27;21.50;;;4.80;99.90;;;;;;5078037;28;20908;-76
2021/03/09 11:04:26;;;;;;;43.33;28.07;;;5.10;99.90;;;;;;5079112;28;20445;-76
2021/03/09 11:06:52;;;;;;;40.30;26.33;;;5.00;99.90;;;;;;5071921;28;20407;-76
2021/03/09 11:09:18;;;;;;;41.70;25.57;;;4.80;99.90;;;;;;5079835;28;20405;-76
2021/03/09 11:11:44;;;;;;;45.07;26.80;;;4.90;99.90;;;;;;5081226;28;20428;-77
2021/03/09 11:14:11;;;;;;;45.00;27.27;;;4.90;99.90;;;;;;5079624;28;20397;-77
2021/03/09 11:16:37;;;;;;;41.40;26.30;;;4.90;99.90;;;;;;5062657;28;20444;-77
2021/03/09 11:19:03;;;;;;;39.63;28.07;;;4.70;99.90;;;;;;5081074;28;20417;-76
2021/03/09 11:21:29;;;;;;;44.97;24.97;;;4.80;99.90;;;;;;5059181;28;20428;-76
2021/03/09 11:23:55;;;;;;;44.30;29.00;;;4.90;99.90;;;;;;5080682;28;20895;-77
2021/03/09 11:26:23;;;;;;;51.13;33.77;;;4.80;99.90;;;;;;5061484;28;20388;-77
2021/03/09 11:28:49;;;;;;;38.10;22.20;;;4.60;99.90;;;;;;5079120;28;20502;-77
2021/03/09 11:31:16;;;;;;;53.30;31.37;;;4.70;99.90;;;;;;5078693;28;20385;-77
2021/03/09 11:33:42;;;;;;;48.90;28.43;;;4.70;99.90;;;;;;5097211;28;20850;-77
2021/03/09 11:36:11;;;;;;;57.93;30.63;;;4.70;99.90;;;;;;5080050;28;20517;-77
2021/03/09 11:38:37;;;;;;;44.10;28.67;;;4.60;99.90;;;;;;5051649;28;20453;-77
2021/03/09 11:41:03;;;;;;;45.07;29.83;;;4.90;99.90;;;;;;5079921;28;20466;-76
2021/03/09 11:43:29;;;;;;;49.63;30.10;;;5.00;99.90;;;;;;5046806;28;20484;-77
2021/03/09 11:45:55;;;;;;;57.27;35.53;;;5.00;99.90;;;;;;5079968;28;20563;-77
2021/03/09 11:48:22;;;;;;;54.30;32.30;;;4.80;99.90;;;;;;5077599;28;20746;-77
2021/03/09 11:50:47;;;;;;;54.77;31.13;;;4.80;99.90;;;;;;5079810;28;20401;-77
2021/03/09 11:53:13;;;;;;;53.03;31.80;;;4.70;99.90;;;;;;5080081;28;20444;-76
2021/03/09 11:55:39;;;;;;;52.47;31.87;;;5.00;99.90;;;;;;5079882;28;20243;-76
2021/03/09 11:58:04;;;;;;;47.00;30.07;;;5.00;99.90;;;;;;5077845;28;20637;-76
2021/03/09 12:00:30;;;;;;;58.10;35.10;;;4.80;99.90;;;;;;5079090;28;20209;-76
2021/03/09 12:02:56;;;;;;;60.20;31.80;;;4.90;99.90;;;;;;5081064;28;20547;-76
2021/03/09 12:05:23;;;;;;;59.07;33.43;;;4.90;99.90;;;;;;5076724;28;20243;-77
2021/03/09 12:07:49;;;;;;;53.73;33.03;;;5.00;99.90;;;;;;5075994;28;20304;-77
2021/03/09 12:10:14;;;;;;;56.70;32.40;;;5.00;99.90;;;;;;5073343;28;20437;-76
2021/03/09 12:12:40;;;;;;;57.77;34.20;;;5.10;99.90;;;;;;5041555;28;20213;-77
2021/03/09 12:15:06;;;;;;;48.50;30.17;;;5.10;99.90;;;;;;5072280;28;20208;-76
2021/03/09 12:17:32;;;;;;;59.60;30.67;;;5.20;99.90;;;;;;5060611;28;20201;-76
2021/03/09 12:19:57;;;;;;;63.53;37.13;;;5.20;99.90;;;;;;5059129;28;20955;-76
2021/03/09 12:22:23;;;;;;;59.57;36.20;;;5.10;99.90;;;;;;5051543;28;20324;-76
2021/03/09 12:24:49;;;;;;;56.97;32.53;;;4.90;99.90;;;;;;5057163;28;20197;-76
2021/03/09 12:27:14;;;;;;;58.40;35.70;;;5.10;99.90;;;;;;5070585;28;20774;-77
2021/03/09 12:29:41;;;;;;;56.67;32.27;;;5.30;99.90;;;;;;5043877;28;20245;-76
2021/03/09 12:32:07;;;;;;;57.23;35.47;;;5.30;99.90;;;;;;5073852;28;20204;-76
2021/03/09 12:34:33;;;;;;;62.80;35.50;;;5.30;99.90;;;;;;5059675;28;20400;-76
2021/03/09 12:36:58;;;;;;;55.97;31.60;;;5.40;99.90;;;;;;5063307;28;20879;-76
2021/03/09 12:39:24;;;;;;;61.63;36.10;;;5.60;99.90;;;;;;5042196;28;20675;-75
2021/03/09 12:41:50;;;;;;;66.30;37.53;;;5.80;99.90;;;;;;5078458;28;20673;-76
2021/03/09 12:44:16;;;;;;;59.90;36.40;;;5.40;99.90;;;;;;5068341;28;20651;-77
2021/03/09 12:46:41;;;;;;;66.47;36.07;;;5.40;99.90;;;;;;5056471;28;20201;-76
2021/03/09 12:49:07;;;;;;;80.17;39.73;;;5.40;99.90;;;;;;5083224;28;20651;-75
2021/03/09 12:51:33;;;;;;;72.63;38.30;;;5.50;99.90;;;;;;5076922;28;20212;-76
2021/03/09 12:53:59;;;;;;;63.40;37.43;;;5.50;99.90;;;;;;5068627;28;20444;-76
2021/03/09 12:56:25;;;;;;;61.77;35.40;;;5.40;99.90;;;;;;5067908;28;20570;-76
2021/03/09 12:58:52;;;;;;;64.83;39.77;;;5.70;99.90;;;;;;5078925;28;20469;-75
2021/03/09 13:01:17;;;;;;;71.60;39.50;;;5.70;99.90;;;;;;5059859;28;20211;-76
2021/03/09 13:03:43;;;;;;;64.73;36.30;;;5.80;99.90;;;;;;5081364;28;20832;-76